createdAt,value
2017-09-19T00:02:22.401Z,93.30
2017-09-19T00:04:50.014Z,93.50
2017-09-19T00:07:18.357Z,93.30
2017-09-19T00:09:45.930Z,93.50
2017-09-19T00:12:13.488Z,93.40
2017-09-19T00:14:41.123Z,93.50
2017-09-19T00:17:08.712Z,93.40
2017-09-19T00:19:36.287Z,93.40
2017-09-19T00:22:03.899Z,93.60
2017-09-19T00:24:31.474Z,93.90
2017-09-19T00:26:59.077Z,93.50
2017-09-19T00:29:27.475Z,93.50
2017-09-19T00:31:55.100Z,93.40
2017-09-19T00:34:22.694Z,93.50
2017-09-19T00:36:51.080Z,93.30
2017-09-19T00:39:18.675Z,93.30
2017-09-19T00:41:46.281Z,93.20
2017-09-19T00:44:14.663Z,93.30
2017-09-19T00:46:43.018Z,93.30
2017-09-19T00:49:10.596Z,93.30
2017-09-19T00:51:38.964Z,93.30
2017-09-19T00:54:06.549Z,93.30
2017-09-19T00:56:34.222Z,93.60
2017-09-19T00:59:01.853Z,93.10
2017-09-19T01:01:30.359Z,93.20
2017-09-19T01:03:57.950Z,93.40
2017-09-19T01:06:25.576Z,93.30
2017-09-19T01:08:53.122Z,93.20
2017-09-19T01:11:21.450Z,93.30
2017-09-19T01:13:49.027Z,93.30
2017-09-19T01:16:16.612Z,93.30
2017-09-19T01:18:45.002Z,93.30
2017-09-19T01:21:13.445Z,93.20
2017-09-19T01:23:41.085Z,93.20
2017-09-19T01:26:08.694Z,93.30
2017-09-19T01:28:37.084Z,93.50
2017-09-19T01:31:05.420Z,93.40
2017-09-19T01:33:33.014Z,93.40
2017-09-19T01:36:01.603Z,93.10
2017-09-19T01:38:29.930Z,93.00
2017-09-19T01:40:57.544Z,93.00
2017-09-19T01:43:25.911Z,93.20
2017-09-19T01:45:53.528Z,93.10
2017-09-19T01:48:21.156Z,93.20
2017-09-19T01:50:48.756Z,92.90
2017-09-19T01:53:16.361Z,92.60
2017-09-19T01:55:44.678Z,92.70
2017-09-19T01:58:12.286Z,92.70
2017-09-19T02:00:39.898Z,92.80
2017-09-19T02:03:07.476Z,92.90
2017-09-19T02:05:35.078Z,92.30
2017-09-19T02:08:03.442Z,92.30
2017-09-19T02:10:31.049Z,92.30
2017-09-19T02:12:58.636Z,92.20
2017-09-19T02:15:26.224Z,91.90
2017-09-19T02:17:53.799Z,92.00
2017-09-19T02:20:21.419Z,92.00
2017-09-19T02:22:49.042Z,92.00
2017-09-19T02:25:16.648Z,92.10
2017-09-19T02:27:44.248Z,92.10
2017-09-19T02:30:12.582Z,92.10
2017-09-19T02:32:40.253Z,92.10
2017-09-19T02:35:07.821Z,92.10
2017-09-19T02:37:35.416Z,92.20
2017-09-19T02:40:03.791Z,92.10
2017-09-19T02:42:32.141Z,91.80
2017-09-19T02:44:59.721Z,91.80
2017-09-19T02:47:28.099Z,91.60
2017-09-19T02:49:56.474Z,91.60
2017-09-19T02:52:24.848Z,91.40
2017-09-19T02:54:53.201Z,91.40
2017-09-19T02:57:20.823Z,91.40
2017-09-19T02:59:48.430Z,91.50
2017-09-19T03:02:16.038Z,91.30
2017-09-19T03:04:43.701Z,91.50
2017-09-19T03:07:11.352Z,91.70
2017-09-19T03:09:39.717Z,91.80
2017-09-19T03:12:08.089Z,91.70
2017-09-19T03:14:35.736Z,91.70
2017-09-19T03:17:03.305Z,91.90
2017-09-19T03:19:30.909Z,92.00
2017-09-19T03:21:58.516Z,91.10
2017-09-19T03:24:26.108Z,91.30
2017-09-19T03:26:54.489Z,91.40
2017-09-19T03:29:22.869Z,91.50
2017-09-19T03:31:50.436Z,91.50
2017-09-19T03:34:18.039Z,91.50
2017-09-19T03:36:45.628Z,91.30
2017-09-19T03:39:13.223Z,91.30
2017-09-19T03:41:40.823Z,91.30
2017-09-19T03:44:08.404Z,91.40
2017-09-19T03:46:35.991Z,91.60
2017-09-19T03:49:03.585Z,91.70
2017-09-19T03:51:31.208Z,91.70
2017-09-19T03:53:58.818Z,91.90
2017-09-19T03:56:27.148Z,91.80
2017-09-19T03:58:54.780Z,91.70
2017-09-19T04:01:22.357Z,91.30
2017-09-19T04:03:49.997Z,90.90
2017-09-19T04:06:17.605Z,91.20
2017-09-19T04:08:45.170Z,91.30
2017-09-19T04:11:12.770Z,91.40
2017-09-19T04:13:41.103Z,91.80
2017-09-19T04:16:08.739Z,91.80
2017-09-19T04:18:36.316Z,91.50
2017-09-19T04:21:03.931Z,91.70
2017-09-19T04:23:32.307Z,91.70
2017-09-19T04:26:00.764Z,91.70
2017-09-19T04:28:28.412Z,91.60
2017-09-19T04:30:56.028Z,91.50
2017-09-19T04:33:23.619Z,91.60
2017-09-19T04:35:51.260Z,91.50
2017-09-19T04:38:18.846Z,91.80
2017-09-19T04:40:47.482Z,91.80
2017-09-19T04:43:15.042Z,91.90
2017-09-19T04:45:43.402Z,91.80
2017-09-19T04:48:11.800Z,91.70
2017-09-19T04:50:40.138Z,91.60
2017-09-19T04:53:07.792Z,91.60
2017-09-19T04:55:35.367Z,91.70
2017-09-19T04:58:02.961Z,91.70
2017-09-19T05:00:31.355Z,92.20
2017-09-19T05:02:58.969Z,92.20
2017-09-19T05:05:26.689Z,92.60
2017-09-19T05:07:54.400Z,92.70
2017-09-19T05:10:23.048Z,92.80
2017-09-19T05:12:50.664Z,92.50
2017-09-19T05:15:19.032Z,92.50
2017-09-19T05:17:47.466Z,92.80
2017-09-19T05:20:15.056Z,92.80
2017-09-19T05:22:42.717Z,92.50
2017-09-19T05:25:10.308Z,92.30
2017-09-19T05:27:38.655Z,92.00
2017-09-19T05:30:06.274Z,92.00
2017-09-19T05:32:33.909Z,92.00
2017-09-19T05:35:02.336Z,91.60
2017-09-19T05:37:29.993Z,91.60
2017-09-19T05:39:57.586Z,91.50
2017-09-19T05:42:25.193Z,91.50
2017-09-19T05:44:52.870Z,91.20
2017-09-19T05:47:20.471Z,91.30
2017-09-19T05:49:48.070Z,91.00
2017-09-19T05:52:15.651Z,91.40
2017-09-19T05:54:43.868Z,91.00
2017-09-19T05:57:11.525Z,90.80
2017-09-19T05:59:39.146Z,90.50
2017-09-19T06:02:06.824Z,90.60
2017-09-19T06:04:34.504Z,90.80
2017-09-19T06:07:02.157Z,91.00
2017-09-19T06:09:37.814Z,91.10
2017-09-19T06:12:05.427Z,90.90
2017-09-19T06:14:33.065Z,91.00
2017-09-19T06:17:00.669Z,91.10
2017-09-19T06:19:28.266Z,91.20
2017-09-19T06:21:55.934Z,91.20
2017-09-19T06:24:23.519Z,91.40
2017-09-19T06:26:51.901Z,91.10
2017-09-19T06:29:20.246Z,91.10
2017-09-19T06:31:47.841Z,91.10
2017-09-19T06:34:15.493Z,91.20
2017-09-19T06:36:43.884Z,91.40
2017-09-19T06:39:11.618Z,91.40
2017-09-19T06:41:39.194Z,91.40
2017-09-19T06:44:06.812Z,91.40
2017-09-19T06:46:35.196Z,91.30
2017-09-19T06:49:02.790Z,91.20
2017-09-19T06:51:30.499Z,90.90
2017-09-19T06:53:58.108Z,91.00
2017-09-19T06:56:25.771Z,91.00
2017-09-19T06:58:53.401Z,91.00
2017-09-19T07:01:21.041Z,91.20
2017-09-19T07:03:48.798Z,91.20
2017-09-19T07:06:17.146Z,90.90
2017-09-19T07:08:44.823Z,90.90
2017-09-19T07:11:12.459Z,90.60
2017-09-19T07:13:40.808Z,90.40
2017-09-19T07:16:08.395Z,90.40
2017-09-19T07:18:35.979Z,90.50
2017-09-19T07:21:03.621Z,90.30
2017-09-19T07:23:31.228Z,90.60
2017-09-19T07:25:59.608Z,90.30
2017-09-19T07:28:28.010Z,90.20
2017-09-19T07:30:55.636Z,90.20
2017-09-19T07:33:23.201Z,90.00
2017-09-19T07:35:51.594Z,90.20
2017-09-19T07:38:19.163Z,90.20
2017-09-19T07:40:47.589Z,90.30
2017-09-19T07:43:15.319Z,90.30
2017-09-19T07:45:42.933Z,90.50
2017-09-19T07:48:11.341Z,90.30
2017-09-19T07:50:38.994Z,90.50
2017-09-19T07:53:07.375Z,90.70
2017-09-19T07:55:34.964Z,90.70
2017-09-19T07:58:02.548Z,90.50
2017-09-19T08:00:30.871Z,90.40
2017-09-19T08:02:58.458Z,90.40
2017-09-19T08:05:31.455Z,90.20
2017-09-19T08:07:59.078Z,90.00
2017-09-19T08:10:26.668Z,89.30
2017-09-19T08:12:54.262Z,89.00
2017-09-19T08:15:21.861Z,87.90
2017-09-19T08:17:49.480Z,88.50
2017-09-19T08:20:17.111Z,87.40
2017-09-19T08:22:44.674Z,87.20
2017-09-19T08:25:12.308Z,87.00
2017-09-19T08:27:39.936Z,85.60
2017-09-19T08:30:07.591Z,84.90
2017-09-19T08:32:35.181Z,84.40
2017-09-19T08:35:03.513Z,83.70
2017-09-19T08:37:31.121Z,83.70
2017-09-19T08:39:59.498Z,83.20
2017-09-19T08:42:27.859Z,82.50
2017-09-19T08:44:55.476Z,82.50
2017-09-19T08:47:23.063Z,82.70
2017-09-19T08:49:50.658Z,82.50
2017-09-19T08:52:19.011Z,81.80
2017-09-19T08:54:46.617Z,81.70
2017-09-19T08:57:14.193Z,81.30
2017-09-19T08:59:41.806Z,81.00
2017-09-19T09:02:09.378Z,82.10
2017-09-19T09:04:37.722Z,80.80
2017-09-19T09:07:05.593Z,80.80
2017-09-19T09:09:33.285Z,81.30
2017-09-19T09:12:01.653Z,81.50
2017-09-19T09:14:29.210Z,81.50
2017-09-19T09:16:56.778Z,79.50
2017-09-19T09:19:25.207Z,80.10
2017-09-19T09:21:52.805Z,80.10
2017-09-19T09:24:20.402Z,80.90
2017-09-19T09:26:48.001Z,79.60
2017-09-19T09:29:17.127Z,80.00
2017-09-19T09:31:44.689Z,78.70
2017-09-19T09:34:12.275Z,79.00
2017-09-19T09:36:39.873Z,78.60
2017-09-19T09:39:07.469Z,78.20
2017-09-19T09:41:35.121Z,78.50
2017-09-19T09:44:02.841Z,79.10
2017-09-19T09:46:30.435Z,78.50
2017-09-19T09:48:58.053Z,78.40
2017-09-19T09:51:25.620Z,76.80
2017-09-19T09:53:53.254Z,76.90
2017-09-19T09:56:21.617Z,77.20
2017-09-19T09:58:50.009Z,77.10
2017-09-19T10:01:18.375Z,77.30
2017-09-19T10:03:46.548Z,77.30
2017-09-19T10:06:14.110Z,76.50
2017-09-19T10:08:42.469Z,74.80
2017-09-19T10:11:10.149Z,74.60
2017-09-19T10:13:38.507Z,75.20
2017-09-19T10:16:06.183Z,75.00
2017-09-19T10:18:33.780Z,74.00
2017-09-19T10:21:01.407Z,74.30
2017-09-19T10:23:28.996Z,74.30
2017-09-19T10:25:56.626Z,74.30
2017-09-19T10:28:24.226Z,73.80
2017-09-19T10:30:51.829Z,75.50
2017-09-19T10:33:19.417Z,75.80
2017-09-19T10:35:46.990Z,76.60
2017-09-19T10:38:15.382Z,77.50
2017-09-19T10:40:42.978Z,77.50
2017-09-19T10:43:10.635Z,77.10
2017-09-19T10:45:38.340Z,77.60
2017-09-19T10:48:05.909Z,77.60
2017-09-19T10:50:34.311Z,77.70
2017-09-19T10:53:01.954Z,77.70
2017-09-19T10:55:30.355Z,76.10
2017-09-19T10:57:57.928Z,76.20
2017-09-19T11:00:25.494Z,73.10
2017-09-19T11:02:53.109Z,72.10
2017-09-19T11:05:20.670Z,70.00
2017-09-19T11:07:48.325Z,69.70
2017-09-19T11:10:15.928Z,68.80
2017-09-19T11:12:43.541Z,67.30
2017-09-19T11:15:11.134Z,68.20
2017-09-19T11:17:38.720Z,67.60
2017-09-19T11:20:06.312Z,68.10
2017-09-19T11:22:34.682Z,70.00
2017-09-19T11:25:03.097Z,70.00
2017-09-19T11:27:30.663Z,70.00
2017-09-19T11:29:58.324Z,68.70
2017-09-19T11:32:25.915Z,70.00
2017-09-19T11:34:53.474Z,69.10
2017-09-19T11:37:21.109Z,71.00
2017-09-19T11:39:48.732Z,69.70
2017-09-19T11:42:17.229Z,69.50
2017-09-19T11:44:44.812Z,69.40
2017-09-19T11:47:12.415Z,68.60
2017-09-19T11:49:40.034Z,67.50
2017-09-19T11:52:07.661Z,67.10
2017-09-19T11:54:35.994Z,67.00
2017-09-19T11:57:03.593Z,67.00
2017-09-19T11:59:31.921Z,68.90
2017-09-19T12:01:59.506Z,68.90
2017-09-19T12:04:27.066Z,69.90
2017-09-19T12:06:54.625Z,69.30
2017-09-19T12:09:22.248Z,70.00
2017-09-19T12:11:49.822Z,69.00
2017-09-19T12:14:17.425Z,69.40
2017-09-19T12:16:45.822Z,69.80
2017-09-19T12:19:13.449Z,69.80
2017-09-19T12:21:41.086Z,70.30
2017-09-19T12:24:08.691Z,72.00
2017-09-19T12:26:37.078Z,72.20
2017-09-19T12:29:04.713Z,72.10
2017-09-19T12:31:33.070Z,73.30
2017-09-19T12:34:00.817Z,72.30
2017-09-19T12:36:28.517Z,72.30
2017-09-19T12:38:56.282Z,71.00
2017-09-19T12:41:24.011Z,72.40
2017-09-19T12:43:51.864Z,73.60
2017-09-19T12:46:20.081Z,73.00
2017-09-19T12:48:47.746Z,73.20
2017-09-19T12:51:15.430Z,73.20
2017-09-19T12:53:43.929Z,73.30
2017-09-19T12:56:11.610Z,73.20
2017-09-19T12:58:39.283Z,73.30
2017-09-19T13:01:07.057Z,74.70
2017-09-19T13:03:34.694Z,73.50
2017-09-19T13:06:02.359Z,71.50
2017-09-19T13:08:30.123Z,71.90
2017-09-19T13:10:58.668Z,73.10
2017-09-19T13:13:27.033Z,71.80
2017-09-19T13:15:54.700Z,73.80
2017-09-19T13:18:23.176Z,70.20
2017-09-19T13:20:51.557Z,73.10
2017-09-19T13:23:19.220Z,73.00
2017-09-19T13:25:46.844Z,73.20
2017-09-19T13:28:14.509Z,72.70
2017-09-19T13:30:42.263Z,72.70
2017-09-19T13:33:21.872Z,72.60
2017-09-19T13:35:50.240Z,73.20
2017-09-19T13:38:17.865Z,73.20
2017-09-19T13:40:47.032Z,73.60
2017-09-19T13:43:14.718Z,73.60
2017-09-19T13:45:43.284Z,71.70
2017-09-19T13:48:10.936Z,71.40
2017-09-19T13:50:39.470Z,71.30
2017-09-19T13:53:07.318Z,70.20
2017-09-19T13:55:34.942Z,70.20
2017-09-19T13:58:02.679Z,69.80
2017-09-19T14:00:31.162Z,71.00
2017-09-19T14:02:59.053Z,70.80
2017-09-19T14:05:26.702Z,71.10
2017-09-19T14:07:55.264Z,71.00
2017-09-19T14:10:22.949Z,71.10
2017-09-19T14:12:50.580Z,71.60
2017-09-19T14:15:18.352Z,72.40
2017-09-19T14:17:45.980Z,73.10
2017-09-19T14:20:13.596Z,73.00
2017-09-19T14:22:42.584Z,72.50
2017-09-19T14:25:10.237Z,72.00
2017-09-19T14:27:37.862Z,70.90
2017-09-19T14:30:05.525Z,70.30
2017-09-19T14:32:33.210Z,70.10
2017-09-19T14:35:00.922Z,70.30
2017-09-19T14:37:28.588Z,70.30
2017-09-19T14:39:57.547Z,70.80
2017-09-19T14:42:25.395Z,69.70
2017-09-19T14:44:53.050Z,70.30
2017-09-19T14:47:20.722Z,70.00
2017-09-19T14:49:49.393Z,69.60
2017-09-19T14:52:17.297Z,70.40
2017-09-19T14:54:45.122Z,69.60
2017-09-19T14:57:12.815Z,69.20
2017-09-19T14:59:41.370Z,68.40
2017-09-19T15:02:09.015Z,68.40
2017-09-19T15:04:37.571Z,68.60
2017-09-19T15:07:05.274Z,68.90
2017-09-19T15:09:32.901Z,67.70
2017-09-19T15:12:01.376Z,66.80
2017-09-19T15:14:28.964Z,66.40
2017-09-19T15:16:56.650Z,66.40
2017-09-19T15:19:24.283Z,66.70
2017-09-19T15:21:52.844Z,65.80
2017-09-19T15:24:20.460Z,66.70
2017-09-19T15:26:48.233Z,67.70
2017-09-19T15:29:15.844Z,67.80
2017-09-19T15:31:43.513Z,67.80
2017-09-19T15:34:11.125Z,69.00
2017-09-19T15:36:39.505Z,67.50
2017-09-19T15:39:07.100Z,67.40
2017-09-19T15:41:34.753Z,67.80
2017-09-19T15:44:02.412Z,68.20
2017-09-19T15:46:30.938Z,68.50
2017-09-19T15:48:58.589Z,68.20
2017-09-19T15:51:26.236Z,68.80
2017-09-19T15:53:54.653Z,70.40
2017-09-19T15:56:22.693Z,70.40
2017-09-19T15:58:51.073Z,69.20
2017-09-19T16:01:20.114Z,69.50
2017-09-19T16:03:47.789Z,69.50
2017-09-19T16:06:15.524Z,69.90
2017-09-19T16:08:43.348Z,70.30
2017-09-19T16:11:11.146Z,69.80
2017-09-19T16:13:38.759Z,71.20
2017-09-19T16:16:06.980Z,72.40
2017-09-19T16:18:34.981Z,72.80
2017-09-19T16:21:02.666Z,73.20
2017-09-19T16:23:30.307Z,74.00
2017-09-19T16:25:57.981Z,74.20
2017-09-19T16:28:25.693Z,73.90
2017-09-19T16:30:53.393Z,74.60
2017-09-19T16:33:21.114Z,73.70
2017-09-19T16:35:48.769Z,74.10
2017-09-19T16:38:18.071Z,73.80
2017-09-19T16:40:45.945Z,73.90
2017-09-19T16:43:13.936Z,73.90
2017-09-19T16:45:42.617Z,74.00
2017-09-19T16:48:10.230Z,73.90
2017-09-19T16:50:38.020Z,74.30
2017-09-19T16:53:06.894Z,74.30
2017-09-19T16:55:35.305Z,75.20
2017-09-19T16:58:03.401Z,75.20
2017-09-19T17:00:31.001Z,76.10
2017-09-19T17:02:58.713Z,76.60
2017-09-19T17:05:26.517Z,76.60
2017-09-19T17:07:54.282Z,76.50
2017-09-19T17:10:22.034Z,76.60
2017-09-19T17:12:49.787Z,77.10
2017-09-19T17:15:17.453Z,76.80
2017-09-19T17:17:45.111Z,77.80
2017-09-19T17:20:12.840Z,78.40
2017-09-19T17:22:40.826Z,78.60
2017-09-19T17:25:09.432Z,78.90
2017-09-19T17:27:37.888Z,79.20
2017-09-19T17:30:05.742Z,79.70
2017-09-19T17:32:35.231Z,81.00
2017-09-19T17:35:03.698Z,80.90
2017-09-19T17:37:31.450Z,80.90
2017-09-19T17:39:59.212Z,81.70
2017-09-19T17:42:29.217Z,82.80
2017-09-19T17:44:57.754Z,83.60
2017-09-19T17:47:25.728Z,83.60
2017-09-19T17:49:53.397Z,82.30
2017-09-19T17:52:21.049Z,82.80
2017-09-19T17:54:49.380Z,81.90
2017-09-19T17:57:17.097Z,82.80
2017-09-19T17:59:44.854Z,83.30
2017-09-19T18:02:12.478Z,82.90
2017-09-19T18:04:40.081Z,84.00
2017-09-19T18:07:07.755Z,83.30
2017-09-19T18:09:35.580Z,83.30
2017-09-19T18:12:05.309Z,83.50
2017-09-19T18:14:32.949Z,83.50
2017-09-19T18:17:01.373Z,84.10
2017-09-19T18:19:29.115Z,84.10
2017-09-19T18:21:56.840Z,84.20
2017-09-19T18:24:24.521Z,84.40
2017-09-19T18:26:52.165Z,84.50
2017-09-19T18:29:19.819Z,84.70
2017-09-19T18:31:47.452Z,85.00
2017-09-19T18:34:15.995Z,85.30
2017-09-19T18:36:43.660Z,85.20
2017-09-19T18:39:11.320Z,85.60
2017-09-19T18:41:40.018Z,85.70
2017-09-19T18:44:07.864Z,86.00
2017-09-19T18:46:36.337Z,85.90
2017-09-19T18:49:04.833Z,85.50
2017-09-19T18:51:32.511Z,85.50
2017-09-19T18:54:00.154Z,86.00
2017-09-19T18:56:27.775Z,85.60
2017-09-19T18:58:55.501Z,86.00
2017-09-19T19:01:23.165Z,85.70
2017-09-19T19:03:50.773Z,85.20
2017-09-19T19:06:18.409Z,84.90
2017-09-19T19:08:46.784Z,84.50
2017-09-19T19:11:14.525Z,84.30
2017-09-19T19:13:42.189Z,84.40
2017-09-19T19:16:09.782Z,84.30
2017-09-19T19:18:38.388Z,85.00
2017-09-19T19:21:06.042Z,85.00
2017-09-19T19:23:33.733Z,85.30
2017-09-19T19:26:01.328Z,85.50
2017-09-19T19:28:29.775Z,85.90
2017-09-19T19:30:57.465Z,86.00
2017-09-19T19:33:25.257Z,86.70
2017-09-19T19:35:53.829Z,87.00
2017-09-19T19:38:21.462Z,87.60
2017-09-19T19:40:49.098Z,88.30
2017-09-19T19:43:17.518Z,88.70
2017-09-19T19:45:45.148Z,88.70
2017-09-19T19:48:12.909Z,88.50
2017-09-19T19:50:42.063Z,89.00
2017-09-19T19:53:10.586Z,88.80
2017-09-19T19:55:38.210Z,89.30
2017-09-19T19:58:05.873Z,89.40
2017-09-19T20:00:33.535Z,89.50
2017-09-19T20:03:01.813Z,89.90
2017-09-19T20:05:29.405Z,90.10
2017-09-19T20:07:57.877Z,89.40
2017-09-19T20:10:26.294Z,89.30
2017-09-19T20:12:54.045Z,89.30
2017-09-19T20:15:21.637Z,89.80
2017-09-19T20:17:49.435Z,89.50
2017-09-19T20:20:17.178Z,90.20
2017-09-19T20:22:46.788Z,89.90
2017-09-19T20:25:14.426Z,89.40
2017-09-19T20:27:42.058Z,90.00
2017-09-19T20:30:09.738Z,89.80
2017-09-19T20:32:38.297Z,89.60
2017-09-19T20:35:07.447Z,90.00
2017-09-19T20:37:35.178Z,90.00
2017-09-19T20:40:02.809Z,90.20
2017-09-19T20:42:31.268Z,90.40
2017-09-19T20:44:59.686Z,90.60
2017-09-19T20:47:27.353Z,90.60
2017-09-19T20:49:55.021Z,90.90
2017-09-19T20:52:22.621Z,90.80
2017-09-19T20:54:50.288Z,90.90
2017-09-19T20:57:18.819Z,91.10
2017-09-19T20:59:46.454Z,91.20
2017-09-19T21:02:14.133Z,91.20
2017-09-19T21:04:48.842Z,91.20
2017-09-19T21:07:22.062Z,91.20
2017-09-19T21:09:55.338Z,91.30
2017-09-19T21:12:28.537Z,91.50
2017-09-19T21:15:01.872Z,91.60
2017-09-19T21:17:36.167Z,91.60
2017-09-19T21:20:03.689Z,92.00
2017-09-19T21:22:31.384Z,91.90
2017-09-19T21:24:58.997Z,92.00
2017-09-19T21:27:26.813Z,92.00
2017-09-19T21:29:54.413Z,91.80
2017-09-19T21:32:22.886Z,91.80
2017-09-19T21:34:50.566Z,91.90
2017-09-19T21:37:19.082Z,92.00
2017-09-19T21:39:47.464Z,91.90
2017-09-19T21:42:15.176Z,91.90
2017-09-19T21:44:43.657Z,92.00
2017-09-19T21:47:11.361Z,92.00
2017-09-19T21:49:39.113Z,91.90
2017-09-19T21:52:07.133Z,91.80
2017-09-19T21:54:34.775Z,91.90
2017-09-19T21:57:02.405Z,91.90
2017-09-19T21:59:30.152Z,91.70
2017-09-19T22:01:57.850Z,91.90
2017-09-19T22:04:25.458Z,91.70
2017-09-19T22:06:53.086Z,91.90
2017-09-19T22:09:20.720Z,91.90
2017-09-19T22:11:49.092Z,91.90
2017-09-19T22:14:16.809Z,91.90
2017-09-19T22:16:44.483Z,91.90
2017-09-19T22:19:12.266Z,91.90
2017-09-19T22:21:39.860Z,91.70
2017-09-19T22:24:07.474Z,91.80
2017-09-19T22:26:35.086Z,91.80
2017-09-19T22:29:02.793Z,91.90
2017-09-19T22:31:30.422Z,91.90
2017-09-19T22:33:58.678Z,91.90
2017-09-19T22:36:27.146Z,91.80
2017-09-19T22:38:54.773Z,91.90
2017-09-19T22:41:22.442Z,91.90
2017-09-19T22:43:50.013Z,91.80
2017-09-19T22:46:17.616Z,91.80
2017-09-19T22:48:46.341Z,92.00
2017-09-19T22:51:14.966Z,92.00
2017-09-19T22:53:42.569Z,92.00
2017-09-19T22:56:10.238Z,92.10
2017-09-19T22:58:38.869Z,92.00
2017-09-19T23:01:06.474Z,92.00
2017-09-19T23:03:34.213Z,92.00
2017-09-19T23:06:02.092Z,92.00
2017-09-19T23:08:30.226Z,91.90
2017-09-19T23:10:57.878Z,92.00
2017-09-19T23:13:25.557Z,92.10
2017-09-19T23:15:53.169Z,92.30
2017-09-19T23:18:20.848Z,92.30
2017-09-19T23:20:48.459Z,92.30
2017-09-19T23:23:16.120Z,92.40
2017-09-19T23:25:44.530Z,92.50
2017-09-19T23:28:12.728Z,92.80
2017-09-19T23:30:41.185Z,92.40
2017-09-19T23:33:08.810Z,92.40
2017-09-19T23:35:36.428Z,92.40
2017-09-19T23:38:04.070Z,92.40
2017-09-19T23:40:31.672Z,92.40
2017-09-19T23:42:59.348Z,92.50
2017-09-19T23:45:26.962Z,92.30
2017-09-19T23:47:54.601Z,92.50
2017-09-19T23:50:22.217Z,92.40
2017-09-19T23:52:49.880Z,92.20
2017-09-19T23:55:17.499Z,92.20
2017-09-19T23:57:45.080Z,92.10
